»·PEaware :: N698J KDRO-KLXV

N698J :: KDRO-KLXV

FLIGHT INFORMATION

Flight Status: Arrived
Operator: Privately registered:
United States
More flights under this callsign
Pilot: Ahmad S. (5672)
Aircraft: BEECH AIRCRAFT BARON
(BE58)
More flights by this aircraft type
Origin: KDRO Durango-La Plata Co
United States
Destination: KLXV Lake Co
United States
More flights between these airports :: More routes between these airports
Route: DRO V421 DBL V134 DAVVY
File this flight plan on PilotEdge
Remarks:
Altitude:
(Current/Filed)
17,000ft
Speed:
(Current/Filed)
185kts
Departed: 23-Oct-21 08:08 AM
Arrived: 23-Oct-21 09:10 AM
Distance/Time
Traveled:
142nm/1:02
Distance/Time
To Go:
Arrived

Flight Plot

Page will automatically refresh every two minutes.

Flight plan parsing failed; only flown route is shown


Map Options




Map Legend


Flown Route
Filed Route
Departure Airport
Arrival Airport
Navaid (VOR, NDB)
Fix

Horizontal Profiles

Position Reports

Time Latitude Longitude Heading Altitude Ground
Speed
23-Oct-21 07:33 37.154772 -107.752925 147 6667ft 0kts
23-Oct-21 07:34 37.154772 -107.752925 147 6667ft 0kts
23-Oct-21 07:35 37.154772 -107.752925 147 6667ft 0kts
23-Oct-21 07:37 37.154772 -107.752925 147 6667ft 0kts
23-Oct-21 07:38 37.154772 -107.752925 147 6667ft 0kts
23-Oct-21 07:39 37.154772 -107.752925 147 6667ft 0kts
23-Oct-21 07:40 37.154772 -107.752925 147 6667ft 0kts
23-Oct-21 07:41 37.154772 -107.752925 147 6667ft 0kts
23-Oct-21 07:42 37.154772 -107.752925 147 6667ft 0kts
23-Oct-21 07:43 37.154772 -107.752925 147 6667ft 0kts
23-Oct-21 07:44 37.154772 -107.752925 147 6667ft 0kts
23-Oct-21 07:45 37.154772 -107.752925 147 6667ft 0kts
23-Oct-21 07:46 37.154772 -107.752925 147 6667ft 0kts
23-Oct-21 07:47 37.154772 -107.752925 147 6667ft 0kts
23-Oct-21 07:48 37.154772 -107.752925 147 6667ft 0kts
23-Oct-21 07:49 37.154772 -107.752925 147 6667ft 0kts
23-Oct-21 07:50 37.154772 -107.752925 147 6667ft 0kts
23-Oct-21 07:51 37.154772 -107.752925 147 6667ft 0kts
23-Oct-21 07:52 37.154772 -107.752925 147 6667ft 0kts
23-Oct-21 07:53 37.154772 -107.752925 147 6667ft 0kts
23-Oct-21 07:54 37.154772 -107.752925 147 6667ft 0kts
23-Oct-21 07:55 37.154772 -107.752925 147 6667ft 0kts
23-Oct-21 07:56 37.154772 -107.752925 147 6667ft 0kts
23-Oct-21 07:57 37.154772 -107.752925 147 6667ft 0kts
23-Oct-21 07:58 37.154772 -107.752925 147 6667ft 0kts
23-Oct-21 07:59 37.154772 -107.752925 147 6667ft 0kts
23-Oct-21 08:00 37.154772 -107.752925 147 6667ft 0kts
23-Oct-21 08:01 37.154772 -107.752925 147 6667ft 0kts
23-Oct-21 08:02 37.154621 -107.752811 164 6666ft 7kts
23-Oct-21 08:02 37.150392 -107.756594 217 6652ft 34kts
23-Oct-21 08:04 37.142675 -107.764030 231 6626ft 16kts
23-Oct-21 08:05 37.142305 -107.764615 120 6624ft 0kts
23-Oct-21 08:06 37.142305 -107.764615 120 6624ft 0kts
23-Oct-21 08:06 37.142009 -107.762831 36 6624ft 30kts
23-Oct-21 08:07 37.167891 -107.737258 38 7668ft 155kts
23-Oct-21 08:09 37.183589 -107.771495 238 9430ft 154kts
23-Oct-21 08:10 37.197519 -107.805597 22 10723ft 177kts
23-Oct-21 08:10 37.224685 -107.766477 55 11632ft 182kts
23-Oct-21 08:11 37.254652 -107.714297 54 12542ft 188kts
23-Oct-21 08:12 37.294519 -107.673431 20 13441ft 188kts
23-Oct-21 08:14 37.351815 -107.643009 17 14448ft 191kts
23-Oct-21 08:14 37.392692 -107.620730 14 15166ft 192kts
23-Oct-21 08:15 37.441616 -107.594315 13 16175ft 195kts
23-Oct-21 08:16 37.491220 -107.567657 15 16699ft 191kts
23-Oct-21 08:17 37.540006 -107.540782 13 17202ft 189kts
23-Oct-21 08:18 37.590124 -107.513921 14 17488ft 210kts
23-Oct-21 08:19 37.644887 -107.484379 16 17417ft 216kts
23-Oct-21 08:20 37.699582 -107.454320 12 17406ft 214kts
23-Oct-21 08:21 37.754666 -107.424128 14 17407ft 217kts
23-Oct-21 08:22 37.809956 -107.394196 14 17398ft 216kts
23-Oct-21 08:23 37.865229 -107.363935 13 17408ft 217kts
23-Oct-21 08:24 37.920738 -107.333306 14 17391ft 217kts
23-Oct-21 08:25 37.975421 -107.303621 14 17332ft 210kts
23-Oct-21 08:26 38.029964 -107.273649 13 17430ft 219kts
23-Oct-21 08:27 38.086538 -107.242286 15 17502ft 226kts
23-Oct-21 08:28 38.143352 -107.211003 14 17415ft 220kts
23-Oct-21 08:29 38.198586 -107.180473 14 17386ft 217kts
23-Oct-21 08:30 38.252919 -107.150350 13 17352ft 211kts
23-Oct-21 08:31 38.307227 -107.120323 14 17334ft 211kts
23-Oct-21 08:32 38.362086 -107.089844 14 17367ft 216kts
23-Oct-21 08:33 38.416653 -107.059414 13 17336ft 213kts
23-Oct-21 08:34 38.472247 -107.036514 356 17360ft 204kts
23-Oct-21 08:35 38.528637 -107.028845 354 17345ft 203kts
23-Oct-21 08:36 38.585301 -107.020413 353 17349ft 206kts
23-Oct-21 08:37 38.641386 -107.012286 354 17340ft 201kts
23-Oct-21 08:38 38.697588 -107.003966 354 17336ft 202kts
23-Oct-21 08:39 38.754484 -106.995685 355 17332ft 208kts
23-Oct-21 08:40 38.812361 -106.987345 355 17371ft 211kts
23-Oct-21 08:41 38.870262 -106.978660 353 17302ft 203kts
23-Oct-21 08:42 38.926992 -106.970417 355 17310ft 206kts
23-Oct-21 08:43 38.982528 -106.949131 35 17395ft 234kts
23-Oct-21 08:44 39.032726 -106.896018 33 17270ft 226kts
23-Oct-21 08:45 39.082062 -106.847232 30 17339ft 228kts
23-Oct-21 08:46 39.131802 -106.798316 31 17266ft 221kts
23-Oct-21 08:47 39.179868 -106.748526 32 17325ft 228kts
23-Oct-21 08:48 39.228847 -106.697898 32 17314ft 226kts
23-Oct-21 08:49 39.277797 -106.647501 32 17261ft 220kts
23-Oct-21 08:50 39.325815 -106.597880 32 17326ft 226kts
23-Oct-21 08:51 39.374492 -106.546361 34 17290ft 227kts
23-Oct-21 08:52 39.423331 -106.493581 34 17258ft 224kts
23-Oct-21 08:53 39.470963 -106.441795 35 17208ft 217kts
23-Oct-21 08:54 39.517308 -106.391707 28 17283ft 218kts
23-Oct-21 08:55 39.573608 -106.384385 343 17024ft 198kts
23-Oct-21 08:56 39.627250 -106.388645 0 16363ft 197kts
23-Oct-21 08:57 39.635868 -106.333309 167 16268ft 165kts
23-Oct-21 08:58 39.602853 -106.350114 219 16268ft 128kts
23-Oct-21 08:59 39.566488 -106.362106 192 16296ft 146kts
23-Oct-21 09:00 39.525241 -106.359678 189 16191ft 155kts
23-Oct-21 09:01 39.482497 -106.357394 188 15377ft 140kts
23-Oct-21 09:02 39.447228 -106.355754 186 14369ft 121kts
23-Oct-21 09:03 39.413587 -106.353484 184 13442ft 123kts
23-Oct-21 09:04 39.377386 -106.351227 177 12845ft 136kts
23-Oct-21 09:05 39.340545 -106.342932 175 12312ft 141kts
23-Oct-21 09:06 39.301550 -106.334398 174 11627ft 141kts
23-Oct-21 09:07 39.269196 -106.327202 176 11161ft 96kts
23-Oct-21 09:08 39.241484 -106.321670 173 10549ft 103kts
23-Oct-21 09:09 39.222277 -106.316824 85 9935ft 6kts
23-Oct-21 09:10 39.222703 -106.316384 38 9937ft 0kts
23-Oct-21 09:11 39.222344 -106.315941 55 9938ft 0kts
23-Oct-21 09:12 39.222344 -106.315941 55 9938ft 0kts
23-Oct-21 09:13 39.222344 -106.315941 55 9938ft 0kts
23-Oct-21 09:14 39.222344 -106.315941 55 9938ft 0kts
23-Oct-21 09:15 39.222344 -106.315941 55 9938ft 0kts
23-Oct-21 09:16 39.222344 -106.315941 55 9938ft 0kts
23-Oct-21 09:17 39.222344 -106.315941 55 9938ft 0kts
23-Oct-21 09:18 39.222344 -106.315941 55 9938ft 0kts

Navigation Log

Ident Type
Flight plan parsing failed, navigation log unavailable